Peck, Michigan
Current Conditions -  °F | °C
As of 5:34 AM on Thursday 29 Jan 2015 (Local Time) from KD95 Reporting Station
Light Snow Light Snow  
Wind Chill: 17°   Ceiling: 4600
Heat Index: 27°   Visibility: 7mi
Dew Point: 17°   Wind: 10mph
Humidity: 66%   Direction: 150°SSE
Pressure: 29.88"   Gusts: NA
Location:  43.26°N, 82.82°W
Report Text: KD95 291034Z AUTO 15009KT 7SM -SN SCT028 SCT037 OVC046 M03/M08 A2988 RMK AO2 T10301085
Loading
Personal Weather Stations






























Interactive Weather Map New forecast layout! Learn more

10-Day Weather Forecast

Advertisements
Track Severe Weather on mobile